Time,TemperatureF,DewpointF,PressureIn,WindDirection,WindDirectionDegrees,WindSpeedMPH,WindSpeedGustMPH,Humidity,HourlyPrecipIn,Conditions,Clouds,dailyrainin,SolarRadiationWatts/m^2,SoftwareType,DateUTC
2013-10-05 00:14:00,82.0,72.0,-100.00,East,83,6.0,11.0,71,0.00,,,0.11,0.000000,,2013-10-05 04:14:00,
2013-10-05 00:24:00,82.0,72.0,-100.00,East,83,6.0,11.0,71,0.00,,,0.11,0.000000,,2013-10-05 04:24:00,
2013-10-05 00:33:00,82.0,72.0,-100.00,East,83,6.0,11.0,71,0.00,,,0.11,0.000000,,2013-10-05 04:33:00,
2013-10-05 01:13:00,82.0,72.0,-100.00,East,89,6.0,11.0,72,0.00,,,0.11,0.000000,,2013-10-05 05:13:00,
2013-10-05 01:22:00,82.0,72.0,-100.00,East,89,6.0,11.0,72,0.00,,,0.11,0.000000,,2013-10-05 05:22:00,
2013-10-05 01:34:00,82.0,72.0,-100.00,East,89,6.0,11.0,72,0.00,,,0.11,0.000000,,2013-10-05 05:34:00,
2013-10-05 02:12:00,82.0,71.0,-100.00,East,80,5.0,11.0,70,0.00,,,0.11,0.000000,,2013-10-05 06:12:00,
2013-10-05 02:22:00,82.0,71.0,-100.00,East,80,5.0,11.0,70,0.00,,,0.11,0.000000,,2013-10-05 06:22:00,
2013-10-05 02:32:00,82.0,71.0,-100.00,East,80,5.0,11.0,70,0.00,,,0.11,0.000000,,2013-10-05 06:32:00,
2013-10-05 03:12:00,81.0,71.0,-100.00,ENE,76,6.0,11.0,71,0.00,,,0.11,0.000000,,2013-10-05 07:12:00,
2013-10-05 03:22:00,81.0,71.0,-100.00,ENE,76,6.0,11.0,71,0.00,,,0.11,0.000000,,2013-10-05 07:22:00,
2013-10-05 03:32:00,81.0,71.0,-100.00,ENE,76,6.0,11.0,71,0.00,,,0.11,0.000000,,2013-10-05 07:32:00,
2013-10-05 04:12:00,81.0,71.0,-100.00,ENE,70,5.0,10.0,71,0.00,,,0.00,0.000000,,2013-10-05 08:12:00,
2013-10-05 04:23:00,81.0,71.0,-100.00,ENE,70,5.0,10.0,71,0.00,,,0.00,0.000000,,2013-10-05 08:23:00,
2013-10-05 04:32:00,81.0,71.0,-100.00,ENE,70,5.0,10.0,71,0.00,,,0.00,0.000000,,2013-10-05 08:32:00,
2013-10-05 05:12:00,81.0,72.0,-100.00,ENE,76,5.0,9.0,74,0.00,,,0.00,0.000000,,2013-10-05 09:12:00,
2013-10-05 05:22:00,81.0,72.0,-100.00,ENE,76,5.0,9.0,74,0.00,,,0.00,0.000000,,2013-10-05 09:22:00,
2013-10-05 05:33:00,81.0,72.0,-100.00,ENE,76,5.0,9.0,74,0.00,,,0.00,0.000000,,2013-10-05 09:33:00,
2013-10-05 06:12:00,81.0,72.0,-100.00,ENE,75,5.0,9.0,73,0.00,,,0.00,0.000000,,2013-10-05 10:12:00,
2013-10-05 06:23:00,81.0,72.0,-100.00,ENE,75,5.0,9.0,73,0.00,,,0.00,0.000000,,2013-10-05 10:23:00,
2013-10-05 06:32:00,81.0,72.0,-100.00,ENE,75,5.0,9.0,73,0.00,,,0.00,0.000000,,2013-10-05 10:32:00,
2013-10-05 07:12:00,80.0,71.0,-100.00,ENE,77,5.0,9.0,74,0.00,,,0.00,0.000000,,2013-10-05 11:12:00,
2013-10-05 07:22:00,80.0,71.0,-100.00,ENE,77,5.0,9.0,74,0.00,,,0.00,0.000000,,2013-10-05 11:22:00,
2013-10-05 07:33:00,80.0,71.0,-100.00,ENE,77,5.0,9.0,74,0.00,,,0.00,0.000000,,2013-10-05 11:33:00,
2013-10-05 08:12:00,80.0,73.0,-100.00,ENE,62,6.0,12.0,78,0.00,,,0.00,4.000000,,2013-10-05 12:12:00,
2013-10-05 08:22:00,80.0,73.0,-100.00,ENE,62,6.0,12.0,78,0.00,,,0.00,4.000000,,2013-10-05 12:22:00,
2013-10-05 08:32:00,80.0,73.0,-100.00,ENE,62,6.0,12.0,78,0.00,,,0.00,4.000000,,2013-10-05 12:32:00,
2013-10-05 09:12:00,83.0,73.0,-100.00,ENE,60,5.0,11.0,73,0.00,,,0.00,95.000000,,2013-10-05 13:12:00,
2013-10-05 09:22:00,83.0,73.0,-100.00,ENE,60,5.0,11.0,73,0.00,,,0.00,95.000000,,2013-10-05 13:22:00,
2013-10-05 09:32:00,83.0,73.0,-100.00,ENE,60,5.0,11.0,73,0.00,,,0.00,95.000000,,2013-10-05 13:32:00,
2013-10-05 10:12:00,85.0,73.0,-100.00,NE,50,6.0,11.0,67,0.00,,,0.00,302.000000,,2013-10-05 14:12:00,
2013-10-05 10:22:00,85.0,73.0,-100.00,NE,50,6.0,11.0,67,0.00,,,0.00,302.000000,,2013-10-05 14:22:00,
2013-10-05 10:32:00,85.0,73.0,-100.00,NE,50,6.0,11.0,67,0.00,,,0.00,302.000000,,2013-10-05 14:32:00,
2013-10-05 11:12:00,86.0,73.0,-100.00,NE,55,7.0,12.0,66,0.00,,,0.00,588.000000,,2013-10-05 15:12:00,
2013-10-05 11:22:00,86.0,73.0,-100.00,NE,55,7.0,12.0,66,0.00,,,0.00,588.000000,,2013-10-05 15:22:00,
2013-10-05 11:33:00,86.0,73.0,-100.00,NE,55,7.0,12.0,66,0.00,,,0.00,588.000000,,2013-10-05 15:33:00,
2013-10-05 12:13:00,88.0,73.0,-100.00,NE,49,7.0,12.0,62,0.00,,,0.00,676.000000,,2013-10-05 16:13:00,
2013-10-05 12:24:00,88.0,73.0,-100.00,NE,49,7.0,12.0,62,0.00,,,0.00,676.000000,,2013-10-05 16:24:00,
2013-10-05 12:33:00,88.0,73.0,-100.00,NE,49,7.0,12.0,62,0.00,,,0.00,676.000000,,2013-10-05 16:33:00,
2013-10-05 13:12:00,87.0,71.0,-100.00,NE,51,7.0,12.0,60,0.00,,,0.00,815.000000,,2013-10-05 17:12:00,
2013-10-05 13:22:00,87.0,71.0,-100.00,NE,51,7.0,12.0,60,0.00,,,0.00,815.000000,,2013-10-05 17:22:00,
2013-10-05 13:33:00,87.0,71.0,-100.00,NE,51,7.0,12.0,60,0.00,,,0.00,815.000000,,2013-10-05 17:33:00,
2013-10-05 14:12:00,88.0,72.0,-100.00,ENE,57,7.0,12.0,60,0.00,,,0.00,769.000000,,2013-10-05 18:12:00,
2013-10-05 14:22:00,88.0,72.0,-100.00,ENE,57,7.0,12.0,60,0.00,,,0.00,769.000000,,2013-10-05 18:22:00,
2013-10-05 14:32:00,88.0,72.0,-100.00,ENE,57,7.0,12.0,60,0.00,,,0.00,769.000000,,2013-10-05 18:32:00,
2013-10-05 15:11:00,84.0,71.0,-100.00,ENE,61,6.0,11.0,66,0.00,,,0.00,439.000000,,2013-10-05 19:11:00,
2013-10-05 15:22:00,84.0,71.0,-100.00,ENE,61,6.0,11.0,66,0.00,,,0.00,439.000000,,2013-10-05 19:22:00,
2013-10-05 15:32:00,84.0,71.0,-100.00,ENE,61,6.0,11.0,66,0.00,,,0.00,439.000000,,2013-10-05 19:32:00,
2013-10-05 16:11:00,85.0,72.0,-100.00,ENE,67,6.0,11.0,65,0.00,,,0.00,338.000000,,2013-10-05 20:11:00,
2013-10-05 16:22:00,85.0,72.0,-100.00,ENE,67,6.0,11.0,65,0.00,,,0.00,338.000000,,2013-10-05 20:22:00,
2013-10-05 16:32:00,85.0,72.0,-100.00,ENE,67,6.0,11.0,65,0.00,,,0.00,338.000000,,2013-10-05 20:32:00,
2013-10-05 17:12:00,85.0,71.0,-100.00,East,79,7.0,11.0,64,0.00,,,0.00,406.000000,,2013-10-05 21:12:00,
2013-10-05 17:22:00,85.0,71.0,-100.00,East,79,7.0,11.0,64,0.00,,,0.00,406.000000,,2013-10-05 21:22:00,
2013-10-05 17:33:00,85.0,71.0,-100.00,East,79,7.0,11.0,64,0.00,,,0.00,406.000000,,2013-10-05 21:33:00,
2013-10-05 18:13:00,83.0,72.0,-100.00,East,79,6.0,12.0,70,0.00,,,0.00,156.000000,,2013-10-05 22:13:00,
2013-10-05 18:24:00,83.0,72.0,-100.00,East,79,6.0,12.0,70,0.00,,,0.00,156.000000,,2013-10-05 22:24:00,
2013-10-05 18:33:00,83.0,72.0,-100.00,East,79,6.0,12.0,70,0.00,,,0.00,156.000000,,2013-10-05 22:33:00,
2013-10-05 19:13:00,82.0,71.0,-100.00,East,87,6.0,11.0,69,0.00,,,0.00,52.000000,,2013-10-05 23:13:00,
2013-10-05 19:22:00,82.0,71.0,-100.00,East,87,6.0,11.0,69,0.00,,,0.00,52.000000,,2013-10-05 23:22:00,
2013-10-05 19:33:00,82.0,71.0,-100.00,East,87,6.0,11.0,69,0.00,,,0.00,52.000000,,2013-10-05 23:33:00,
2013-10-05 20:12:00,82.0,71.0,-100.00,East,85,6.0,13.0,69,0.00,,,0.00,6.000000,,2013-10-06 00:12:00,
2013-10-05 20:23:00,82.0,71.0,-100.00,East,85,6.0,13.0,69,0.00,,,0.00,6.000000,,2013-10-06 00:23:00,
2013-10-05 20:32:00,82.0,71.0,-100.00,East,85,6.0,13.0,69,0.00,,,0.00,6.000000,,2013-10-06 00:32:00,
2013-10-05 21:11:00,82.0,69.0,-100.00,East,90,7.0,12.0,65,0.00,,,0.00,0.000000,,2013-10-06 01:11:00,
2013-10-05 21:22:00,82.0,69.0,-100.00,East,90,7.0,12.0,65,0.00,,,0.00,0.000000,,2013-10-06 01:22:00,
2013-10-05 21:32:00,82.0,69.0,-100.00,East,90,7.0,12.0,65,0.00,,,0.00,0.000000,,2013-10-06 01:32:00,
2013-10-05 22:12:00,82.0,71.0,-100.00,East,90,6.0,12.0,69,0.00,,,0.00,0.000000,,2013-10-06 02:12:00,
2013-10-05 22:22:00,82.0,71.0,-100.00,East,90,6.0,12.0,69,0.00,,,0.00,0.000000,,2013-10-06 02:22:00,
2013-10-05 22:32:00,82.0,71.0,-100.00,East,90,6.0,12.0,69,0.00,,,0.00,0.000000,,2013-10-06 02:32:00,
2013-10-05 23:12:00,82.0,69.0,-100.00,East,94,6.0,12.0,65,0.00,,,0.00,0.000000,,2013-10-06 03:12:00,
2013-10-05 23:22:00,82.0,69.0,-100.00,East,94,6.0,12.0,65,0.00,,,0.00,0.000000,,2013-10-06 03:22:00,
2013-10-05 23:34:00,82.0,69.0,-100.00,East,94,6.0,12.0,65,0.00,,,0.00,0.000000,,2013-10-06 03:34:00,